createdAt,value
2019-03-22T00:00:10.249Z,13.43
2019-03-22T00:02:38.796Z,14.03
2019-03-22T00:05:07.281Z,12.45
2019-03-22T00:07:35.743Z,13.35
2019-03-22T00:10:05.501Z,12.25
2019-03-22T00:12:33.913Z,11.85
2019-03-22T00:15:02.439Z,12.00
2019-03-22T00:17:30.847Z,12.58
2019-03-22T00:19:59.252Z,12.15
2019-03-22T00:22:28.078Z,12.60
2019-03-22T00:24:56.485Z,11.20
2019-03-22T00:27:24.925Z,12.05
2019-03-22T00:29:53.361Z,11.93
2019-03-22T00:32:21.798Z,10.80
2019-03-22T00:34:50.313Z,10.48
2019-03-22T00:37:18.792Z,11.12
2019-03-22T00:39:47.698Z,10.85
2019-03-22T00:42:16.122Z,9.63
2019-03-22T00:44:44.533Z,9.85
2019-03-22T00:47:12.941Z,10.00
2019-03-22T00:49:41.396Z,10.00
2019-03-22T00:52:09.827Z,8.15
2019-03-22T00:54:38.301Z,10.70
2019-03-22T00:57:06.806Z,9.63
2019-03-22T00:59:35.229Z,9.80
2019-03-22T01:02:03.647Z,8.75
2019-03-22T01:04:32.073Z,8.43
2019-03-22T01:07:00.761Z,9.23
2019-03-22T01:09:29.241Z,9.20
2019-03-22T01:11:57.655Z,8.40
2019-03-22T01:14:26.065Z,9.53
2019-03-22T01:16:54.488Z,10.15
2019-03-22T01:19:22.902Z,9.70
2019-03-22T01:21:51.391Z,9.05
2019-03-22T01:24:20.152Z,9.73
2019-03-22T01:26:48.575Z,8.88
2019-03-22T01:29:16.977Z,9.68
2019-03-22T01:31:45.429Z,9.40
2019-03-22T01:34:13.821Z,9.75
2019-03-22T01:36:42.245Z,9.38
2019-03-22T01:39:10.658Z,10.18
2019-03-22T01:41:39.093Z,8.55
2019-03-22T01:44:07.538Z,8.45
2019-03-22T01:46:36.284Z,8.05
2019-03-22T01:49:05.369Z,9.15
2019-03-22T01:51:33.785Z,8.28
2019-03-22T01:54:02.211Z,8.75
2019-03-22T01:56:30.646Z,9.23
2019-03-22T01:58:59.074Z,8.60
2019-03-22T02:01:27.561Z,7.92
2019-03-22T02:03:56.277Z,8.30
2019-03-22T02:06:24.685Z,8.55
2019-03-22T02:08:53.093Z,7.65
2019-03-22T02:11:21.494Z,8.45
2019-03-22T02:13:49.996Z,8.25
2019-03-22T02:16:19.003Z,8.70
2019-03-22T02:18:47.501Z,9.53
2019-03-22T02:21:15.904Z,9.93
2019-03-22T02:23:44.349Z,9.30
2019-03-22T02:26:12.730Z,8.43
2019-03-22T02:28:41.275Z,10.15
2019-03-22T02:31:09.731Z,11.35
2019-03-22T02:33:38.125Z,9.70
2019-03-22T02:36:06.558Z,9.70
2019-03-22T02:38:34.975Z,11.08
2019-03-22T02:41:03.403Z,9.85
2019-03-22T02:43:31.907Z,9.48
2019-03-22T02:46:00.405Z,9.60
2019-03-22T02:48:29.014Z,10.23
2019-03-22T02:50:57.435Z,9.70
2019-03-22T02:53:25.844Z,9.28
2019-03-22T02:55:54.428Z,11.80
2019-03-22T02:58:22.947Z,9.80
2019-03-22T03:00:51.380Z,10.55
2019-03-22T03:03:20.109Z,9.68
2019-03-22T03:05:48.541Z,8.93
2019-03-22T03:08:16.954Z,9.78
2019-03-22T03:10:45.408Z,9.63
2019-03-22T03:13:13.882Z,10.30
2019-03-22T03:15:42.330Z,9.43
2019-03-22T03:18:10.840Z,9.95
2019-03-22T03:20:39.235Z,8.93
2019-03-22T03:23:07.775Z,10.45
2019-03-22T03:25:36.209Z,9.93
2019-03-22T03:28:04.768Z,10.78
2019-03-22T03:30:33.488Z,10.88
2019-03-22T03:33:02.036Z,9.95
2019-03-22T03:35:30.739Z,11.03
2019-03-22T03:37:59.235Z,10.53
2019-03-22T03:40:27.799Z,10.72
2019-03-22T03:42:56.298Z,10.63
2019-03-22T03:45:30.533Z,11.53
2019-03-22T03:48:00.873Z,9.88
2019-03-22T03:50:29.625Z,10.43
2019-03-22T03:52:58.206Z,9.98
2019-03-22T03:55:27.371Z,10.63
2019-03-22T03:57:56.143Z,11.20
2019-03-22T04:00:24.584Z,10.32
2019-03-22T04:02:53.083Z,10.78
2019-03-22T04:05:21.506Z,11.33
2019-03-22T04:07:49.938Z,12.33
2019-03-22T04:10:18.485Z,10.93
2019-03-22T04:12:46.949Z,11.22
2019-03-22T04:15:15.487Z,10.53
2019-03-22T04:17:43.946Z,12.30
2019-03-22T04:20:12.476Z,12.45
2019-03-22T04:22:40.918Z,9.65
2019-03-22T04:25:09.484Z,10.68
2019-03-22T04:27:37.957Z,10.18
2019-03-22T04:30:07.203Z,11.18
2019-03-22T04:32:35.659Z,11.10
2019-03-22T04:35:06.105Z,11.45
2019-03-22T04:37:34.545Z,10.93
2019-03-22T04:40:04.516Z,11.60
2019-03-22T04:42:32.957Z,12.70
2019-03-22T04:45:01.425Z,11.70
2019-03-22T04:47:29.841Z,10.82
2019-03-22T04:49:58.361Z,10.30
2019-03-22T04:52:27.314Z,11.63
2019-03-22T04:54:57.825Z,10.50
2019-03-22T04:57:28.093Z,11.22
2019-03-22T04:59:57.844Z,10.80
2019-03-22T05:02:26.812Z,11.00
2019-03-22T05:04:55.553Z,11.90
2019-03-22T05:07:24.056Z,11.30
2019-03-22T05:09:52.537Z,11.03
2019-03-22T05:12:22.501Z,10.80
2019-03-22T05:14:52.246Z,12.80
2019-03-22T05:17:21.317Z,12.05
2019-03-22T05:19:52.882Z,11.10
2019-03-22T05:22:23.002Z,11.00
2019-03-22T05:24:52.602Z,11.78
2019-03-22T05:27:22.325Z,11.80
2019-03-22T05:29:53.936Z,12.00
2019-03-22T05:32:22.582Z,11.55
2019-03-22T05:34:51.050Z,11.78
2019-03-22T05:37:19.862Z,13.38
2019-03-22T05:39:48.298Z,11.38
2019-03-22T05:42:16.800Z,12.33
2019-03-22T05:44:45.210Z,12.25
2019-03-22T05:47:13.637Z,11.30
2019-03-22T05:49:42.093Z,11.57
2019-03-22T05:52:10.521Z,12.20
2019-03-22T05:54:38.956Z,12.90
2019-03-22T05:57:13.453Z,11.65
2019-03-22T05:59:42.444Z,11.55
2019-03-22T06:02:07.689Z,11.63
2019-03-22T06:04:36.450Z,12.82
2019-03-22T06:07:04.863Z,12.47
2019-03-22T06:09:33.325Z,11.85
2019-03-22T06:12:02.975Z,13.50
2019-03-22T06:14:31.400Z,13.68
2019-03-22T06:16:59.850Z,13.38
2019-03-22T06:19:28.801Z,14.05
2019-03-22T06:21:57.253Z,11.40
2019-03-22T06:24:25.664Z,12.98
2019-03-22T06:26:54.161Z,13.95
2019-03-22T06:29:22.905Z,13.68
2019-03-22T06:31:51.556Z,13.32
2019-03-22T06:34:19.979Z,13.45
2019-03-22T06:36:48.477Z,12.80
2019-03-22T06:39:16.939Z,12.37
2019-03-22T06:41:45.361Z,12.63
2019-03-22T06:44:13.866Z,14.18
2019-03-22T06:46:42.339Z,12.28
2019-03-22T06:49:10.777Z,11.35
2019-03-22T06:51:39.191Z,12.15
2019-03-22T06:54:07.618Z,12.55
2019-03-22T06:56:36.025Z,13.70
2019-03-22T06:59:04.920Z,12.05
2019-03-22T07:01:33.640Z,13.53
2019-03-22T07:04:02.546Z,12.95
2019-03-22T07:06:31.814Z,12.47
2019-03-22T07:09:00.640Z,11.45
2019-03-22T07:11:29.365Z,11.50
2019-03-22T07:13:58.018Z,12.37
2019-03-22T07:16:26.502Z,11.22
2019-03-22T07:18:55.015Z,11.48
2019-03-22T07:21:23.418Z,11.35
2019-03-22T07:23:51.925Z,12.18
2019-03-22T07:26:20.350Z,13.18
2019-03-22T07:28:48.769Z,11.53
2019-03-22T07:31:17.185Z,11.73
2019-03-22T07:33:45.625Z,11.60
2019-03-22T07:36:14.073Z,11.55
2019-03-22T07:38:42.681Z,12.40
2019-03-22T07:41:11.177Z,11.28
2019-03-22T07:43:39.653Z,11.80
2019-03-22T07:46:08.077Z,11.65
2019-03-22T07:48:36.508Z,11.13
2019-03-22T07:51:04.944Z,12.00
2019-03-22T07:53:33.369Z,13.20
2019-03-22T07:56:01.843Z,13.40
2019-03-22T07:58:30.259Z,11.80
2019-03-22T08:01:00.547Z,16.30
2019-03-22T08:03:28.987Z,13.47
2019-03-22T08:05:57.450Z,12.50
2019-03-22T08:08:26.229Z,24.70
2019-03-22T08:10:54.713Z,12.73
2019-03-22T08:13:23.196Z,12.87
2019-03-22T08:15:51.653Z,13.00
2019-03-22T08:18:20.154Z,16.40
2019-03-22T08:20:48.633Z,19.23
2019-03-22T08:23:21.831Z,32.20
2019-03-22T08:25:50.666Z,49.27
2019-03-22T08:28:19.200Z,40.10
2019-03-22T08:30:47.673Z,999.90
2019-03-22T08:33:16.134Z,555.57
2019-03-22T08:35:44.644Z,429.30
2019-03-22T08:38:13.226Z,98.47
2019-03-22T08:40:41.760Z,966.40
2019-03-22T08:43:10.237Z,228.93
2019-03-22T08:45:38.681Z,73.57
2019-03-22T08:48:07.243Z,999.90
2019-03-22T08:50:35.795Z,15.93
2019-03-22T08:53:05.048Z,999.90
2019-03-22T08:55:33.596Z,195.37
2019-03-22T08:58:02.066Z,527.20
2019-03-22T09:00:39.030Z,178.17
2019-03-22T09:03:00.765Z,637.93
2019-03-22T09:05:29.215Z,766.60
2019-03-22T09:07:57.702Z,30.30
2019-03-22T09:10:26.149Z,365.87
2019-03-22T09:12:54.586Z,999.90
2019-03-22T09:15:23.208Z,23.07
2019-03-22T09:17:51.674Z,374.63
2019-03-22T09:20:20.126Z,999.90
2019-03-22T09:22:48.553Z,999.90
2019-03-22T09:25:17.134Z,999.90
2019-03-22T09:27:45.580Z,999.90
2019-03-22T09:30:14.766Z,871.53
2019-03-22T09:32:43.258Z,739.37
2019-03-22T09:35:11.862Z,834.70
2019-03-22T09:37:40.347Z,709.80
2019-03-22T09:40:09.432Z,770.07
2019-03-22T09:42:37.901Z,647.20
2019-03-22T09:45:08.513Z,520.60
2019-03-22T09:47:36.968Z,785.17
2019-03-22T09:50:08.357Z,873.83
2019-03-22T09:52:36.899Z,975.97
2019-03-22T09:55:13.360Z,994.10
2019-03-22T09:57:36.034Z,722.23
2019-03-22T10:00:07.401Z,999.90
2019-03-22T10:02:35.959Z,999.90
2019-03-22T10:05:05.809Z,999.90
2019-03-22T10:07:34.310Z,999.90
2019-03-22T10:10:03.436Z,999.90
2019-03-22T10:12:31.902Z,999.90
2019-03-22T10:15:00.449Z,999.90
2019-03-22T10:17:29.010Z,409.70
2019-03-22T10:19:57.513Z,729.80
2019-03-22T10:22:25.980Z,999.90
2019-03-22T10:24:54.858Z,999.90
2019-03-22T10:27:23.272Z,999.90
2019-03-22T10:29:51.806Z,999.90
2019-03-22T10:32:20.675Z,999.90
2019-03-22T10:34:50.571Z,999.90
2019-03-22T10:37:19.013Z,999.90
2019-03-22T10:39:47.483Z,999.90
2019-03-22T10:42:16.061Z,999.90
2019-03-22T10:44:44.560Z,999.90
2019-03-22T10:47:13.037Z,999.90
2019-03-22T10:49:42.085Z,999.90
2019-03-22T10:52:11.053Z,999.90
2019-03-22T10:54:39.643Z,331.27
2019-03-22T10:57:08.548Z,999.90
2019-03-22T10:59:37.026Z,999.90
2019-03-22T11:02:07.835Z,999.90
2019-03-22T11:04:35.819Z,999.90
2019-03-22T11:07:04.947Z,999.90
2019-03-22T11:09:33.398Z,619.63
2019-03-22T11:12:11.747Z,803.50
2019-03-22T11:14:32.167Z,460.97
2019-03-22T11:17:00.665Z,999.90
2019-03-22T11:19:29.236Z,999.90
2019-03-22T11:21:57.683Z,730.77
2019-03-22T11:24:26.129Z,999.90
2019-03-22T11:26:54.570Z,999.90
2019-03-22T11:29:23.042Z,394.27
2019-03-22T11:31:51.487Z,623.40
2019-03-22T11:34:20.017Z,721.03
2019-03-22T11:36:48.435Z,717.20
2019-03-22T11:39:17.513Z,728.90
2019-03-22T11:41:45.945Z,725.17
2019-03-22T11:44:14.519Z,872.60
2019-03-22T11:46:43.479Z,582.63
2019-03-22T11:49:12.511Z,717.60
2019-03-22T11:51:41.173Z,701.87
2019-03-22T11:54:09.650Z,632.97
2019-03-22T11:56:38.049Z,803.07
2019-03-22T11:59:06.644Z,393.03
2019-03-22T12:01:35.140Z,624.67
2019-03-22T12:04:03.801Z,214.67
2019-03-22T12:06:32.295Z,383.03
2019-03-22T12:09:00.764Z,549.07
2019-03-22T12:11:29.550Z,624.33
2019-03-22T12:13:58.034Z,538.33
2019-03-22T12:16:26.472Z,316.67
2019-03-22T12:18:55.001Z,196.57
2019-03-22T12:21:23.440Z,219.63
2019-03-22T12:23:51.943Z,226.43
2019-03-22T12:26:20.403Z,202.57
2019-03-22T12:28:48.962Z,367.87
2019-03-22T12:31:19.382Z,569.47
2019-03-22T12:33:47.545Z,24.10
2019-03-22T12:36:16.352Z,12.93
2019-03-22T12:38:44.826Z,13.20
2019-03-22T12:41:13.234Z,14.37
2019-03-22T12:43:41.674Z,21.57
2019-03-22T12:46:10.161Z,31.17
2019-03-22T12:48:38.594Z,12.30
2019-03-22T12:51:07.008Z,10.20
2019-03-22T12:53:35.436Z,10.30
2019-03-22T12:56:04.237Z,9.27
2019-03-22T12:58:32.665Z,11.17
2019-03-22T13:01:01.257Z,11.40
2019-03-22T13:03:29.845Z,9.87
2019-03-22T13:05:58.257Z,8.33
2019-03-22T13:08:26.776Z,9.00
2019-03-22T13:10:55.277Z,8.73
2019-03-22T13:13:23.701Z,8.63
2019-03-22T13:15:52.173Z,9.80
2019-03-22T13:18:20.663Z,9.50
2019-03-22T13:20:51.029Z,8.87
2019-03-22T13:23:19.673Z,10.60
2019-03-22T13:25:48.134Z,9.10
2019-03-22T13:28:16.587Z,9.80
2019-03-22T13:30:45.021Z,10.40
2019-03-22T13:33:13.465Z,11.77
2019-03-22T13:35:41.888Z,11.30
2019-03-22T13:38:10.398Z,21.33
2019-03-22T13:40:38.843Z,9.50
2019-03-22T13:43:07.521Z,10.20
2019-03-22T13:45:36.068Z,10.50
2019-03-22T13:48:04.658Z,12.87
2019-03-22T13:50:33.112Z,11.10
2019-03-22T13:53:01.601Z,11.20
2019-03-22T13:55:30.020Z,11.30
2019-03-22T13:57:58.527Z,15.10
2019-03-22T14:00:26.985Z,12.07
2019-03-22T14:03:03.030Z,12.17
2019-03-22T14:05:25.693Z,12.37
2019-03-22T14:07:54.963Z,11.03
2019-03-22T14:10:31.339Z,10.43
2019-03-22T14:13:03.679Z,12.63
2019-03-22T14:15:32.130Z,13.53
2019-03-22T14:18:01.366Z,12.30
2019-03-22T14:20:30.334Z,10.43
2019-03-22T14:22:58.913Z,9.37
2019-03-22T14:25:28.374Z,10.27
2019-03-22T14:27:57.662Z,10.70
2019-03-22T14:30:26.155Z,10.00
2019-03-22T14:32:55.019Z,10.83
2019-03-22T14:35:23.507Z,10.63
2019-03-22T14:37:51.950Z,10.00
2019-03-22T14:40:20.413Z,9.83
2019-03-22T14:42:48.865Z,8.57
2019-03-22T14:45:17.374Z,10.20
2019-03-22T14:47:46.121Z,9.10
2019-03-22T14:50:14.650Z,9.83
2019-03-22T14:52:43.098Z,12.13
2019-03-22T14:55:11.514Z,11.17
2019-03-22T14:57:48.285Z,9.83
2019-03-22T15:00:12.589Z,10.40
2019-03-22T15:02:41.021Z,9.07
2019-03-22T15:05:09.562Z,9.17
2019-03-22T15:07:38.488Z,10.10
2019-03-22T15:10:09.242Z,8.33
2019-03-22T15:12:37.706Z,10.30
2019-03-22T15:15:15.720Z,8.73
2019-03-22T15:17:48.847Z,8.87
2019-03-22T15:20:18.958Z,8.77
2019-03-22T15:22:51.866Z,9.87
2019-03-22T15:25:40.568Z,10.57
2019-03-22T15:28:27.592Z,9.00
2019-03-22T15:31:12.665Z,8.80
2019-03-22T15:33:54.668Z,9.20
2019-03-22T15:36:33.441Z,9.90
2019-03-22T15:39:19.856Z,10.40
2019-03-22T15:41:50.002Z,10.30
2019-03-22T15:44:18.763Z,10.90
2019-03-22T15:46:47.223Z,10.20
2019-03-22T15:49:15.709Z,11.17
2019-03-22T15:51:44.154Z,10.00
2019-03-22T15:54:12.631Z,11.80
2019-03-22T15:56:41.107Z,10.90
2019-03-22T15:59:09.533Z,9.37
2019-03-22T16:01:38.008Z,10.80
2019-03-22T16:04:06.487Z,11.37
2019-03-22T16:06:35.217Z,11.77
2019-03-22T16:09:05.401Z,11.00
2019-03-22T16:11:33.861Z,11.50
2019-03-22T16:14:02.580Z,11.13
2019-03-22T16:16:31.041Z,10.07
2019-03-22T16:18:59.565Z,10.40
2019-03-22T16:21:27.975Z,11.77
2019-03-22T16:23:56.429Z,11.03
2019-03-22T16:26:24.874Z,11.80
2019-03-22T16:28:53.615Z,10.47
2019-03-22T16:31:22.097Z,10.17
2019-03-22T16:33:54.357Z,10.50
2019-03-22T16:36:20.685Z,10.83
2019-03-22T16:38:49.116Z,10.47
2019-03-22T16:41:17.558Z,10.83
2019-03-22T16:43:46.064Z,11.37
2019-03-22T16:46:14.555Z,11.10
2019-03-22T16:48:42.976Z,10.70
2019-03-22T16:51:11.391Z,10.07
2019-03-22T16:53:40.166Z,11.33
2019-03-22T16:56:08.597Z,12.30
2019-03-22T16:58:37.055Z,11.77
2019-03-22T17:01:06.629Z,13.57
2019-03-22T17:03:35.333Z,14.33
2019-03-22T17:06:03.837Z,12.50
2019-03-22T17:08:32.353Z,14.67
2019-03-22T17:11:00.840Z,17.67
2019-03-22T17:13:29.294Z,26.60
2019-03-22T17:15:57.718Z,32.50
2019-03-22T17:18:26.174Z,27.53
2019-03-22T17:20:54.670Z,28.97
2019-03-22T17:23:23.208Z,55.40
2019-03-22T17:25:51.997Z,116.30
2019-03-22T17:28:20.514Z,181.37
2019-03-22T17:30:48.947Z,259.90
2019-03-22T17:33:17.378Z,353.30
2019-03-22T17:35:45.802Z,380.40
2019-03-22T17:38:14.246Z,414.57
2019-03-22T17:40:42.665Z,484.73
2019-03-22T17:43:11.130Z,424.47
2019-03-22T17:45:39.557Z,612.77
2019-03-22T17:48:08.025Z,840.50
2019-03-22T17:50:36.477Z,999.90
2019-03-22T17:53:05.121Z,832.53
2019-03-22T17:55:33.609Z,999.90
2019-03-22T17:58:02.905Z,999.90
2019-03-22T18:00:31.509Z,999.90
2019-03-22T18:02:59.942Z,493.27
2019-03-22T18:05:28.497Z,999.90
2019-03-22T18:07:57.141Z,617.73
2019-03-22T18:10:25.616Z,826.87
2019-03-22T18:12:54.029Z,840.30
2019-03-22T18:15:22.482Z,888.40
2019-03-22T18:17:50.889Z,225.43
2019-03-22T18:20:19.755Z,141.03
2019-03-22T18:22:48.218Z,108.97
2019-03-22T18:25:16.656Z,70.10
2019-03-22T18:27:45.092Z,61.30
2019-03-22T18:30:17.104Z,39.33
2019-03-22T18:32:45.533Z,41.43
2019-03-22T18:35:14.118Z,35.63
2019-03-22T18:37:42.522Z,38.17
2019-03-22T18:40:15.421Z,49.23
2019-03-22T18:42:44.008Z,35.50
2019-03-22T18:45:15.330Z,19.60
2019-03-22T18:47:45.443Z,12.97
2019-03-22T18:50:14.449Z,15.67
2019-03-22T18:52:42.881Z,14.30
2019-03-22T18:55:12.210Z,13.97
2019-03-22T18:57:40.651Z,14.97
2019-03-22T19:00:14.257Z,15.23
2019-03-22T19:02:42.670Z,15.60
2019-03-22T19:05:21.016Z,16.83
2019-03-22T19:07:49.519Z,17.87
2019-03-22T19:10:18.051Z,15.73
2019-03-22T19:12:46.479Z,15.30
2019-03-22T19:15:16.356Z,13.73
2019-03-22T19:17:44.796Z,17.37
2019-03-22T19:20:14.995Z,15.27
2019-03-22T19:22:44.598Z,15.33
2019-03-22T19:25:14.482Z,15.13
2019-03-22T19:27:43.629Z,14.00
2019-03-22T19:30:16.209Z,15.10
2019-03-22T19:32:44.654Z,15.23
2019-03-22T19:35:13.526Z,13.10
2019-03-22T19:37:41.986Z,15.07
2019-03-22T19:40:12.834Z,12.93
2019-03-22T19:42:41.290Z,13.25
2019-03-22T19:45:11.346Z,12.03
2019-03-22T19:47:40.033Z,13.40
2019-03-22T19:50:10.548Z,12.00
2019-03-22T19:52:39.114Z,13.20
2019-03-22T19:55:09.237Z,13.30
2019-03-22T19:57:38.256Z,13.32
2019-03-22T20:00:14.434Z,13.03
2019-03-22T20:02:43.299Z,14.60
2019-03-22T20:05:11.873Z,14.45
2019-03-22T20:07:40.341Z,14.10
2019-03-22T20:10:11.192Z,14.35
2019-03-22T20:12:39.612Z,13.80
2019-03-22T20:15:09.834Z,13.58
2019-03-22T20:17:38.854Z,13.43
2019-03-22T20:20:09.009Z,13.35
2019-03-22T20:22:37.470Z,12.10
2019-03-22T20:25:09.733Z,11.93
2019-03-22T20:27:38.254Z,13.13
2019-03-22T20:30:08.813Z,12.53
2019-03-22T20:32:37.291Z,12.50
2019-03-22T20:35:16.284Z,11.38
2019-03-22T20:37:38.990Z,12.70
2019-03-22T20:40:10.005Z,13.18
2019-03-22T20:42:38.453Z,13.35
2019-03-22T20:45:08.120Z,13.45
2019-03-22T20:47:36.877Z,12.98
2019-03-22T20:50:07.402Z,12.70
2019-03-22T20:52:35.931Z,13.10
2019-03-22T20:55:07.330Z,12.05
2019-03-22T20:57:35.801Z,12.78
2019-03-22T21:00:06.391Z,14.05
2019-03-22T21:02:34.860Z,13.70
2019-03-22T21:05:03.446Z,14.75
2019-03-22T21:07:31.947Z,12.73
2019-03-22T21:10:00.704Z,14.25
2019-03-22T21:12:29.104Z,13.00
2019-03-22T21:14:57.502Z,15.25
2019-03-22T21:17:25.956Z,15.00
2019-03-22T21:19:54.862Z,14.38
2019-03-22T21:22:23.299Z,14.23
2019-03-22T21:24:51.733Z,15.80
2019-03-22T21:27:20.217Z,16.62
2019-03-22T21:29:48.893Z,16.02
2019-03-22T21:32:17.322Z,15.23
2019-03-22T21:34:45.761Z,16.12
2019-03-22T21:37:14.206Z,14.45
2019-03-22T21:39:42.617Z,15.40
2019-03-22T21:42:11.079Z,15.30
2019-03-22T21:44:39.570Z,15.93
2019-03-22T21:47:08.131Z,14.87
2019-03-22T21:49:36.534Z,14.78
2019-03-22T21:52:05.106Z,14.95
2019-03-22T21:54:33.594Z,15.63
2019-03-22T21:57:02.180Z,15.23
2019-03-22T21:59:30.597Z,16.10
2019-03-22T22:01:59.136Z,18.27
2019-03-22T22:04:27.602Z,16.40
2019-03-22T22:06:56.047Z,17.42
2019-03-22T22:09:24.884Z,14.80
2019-03-22T22:11:53.305Z,16.85
2019-03-22T22:14:21.806Z,16.93
2019-03-22T22:16:50.292Z,17.02
2019-03-22T22:19:18.713Z,15.98
2019-03-22T22:21:47.149Z,16.07
2019-03-22T22:24:15.595Z,17.57
2019-03-22T22:26:44.083Z,16.55
2019-03-22T22:29:12.500Z,18.00
2019-03-22T22:31:41.221Z,17.92
2019-03-22T22:34:09.650Z,17.40
2019-03-22T22:36:38.177Z,18.12
2019-03-22T22:39:06.597Z,16.82
2019-03-22T22:41:35.007Z,19.20
2019-03-22T22:44:03.437Z,18.60
2019-03-22T22:46:31.897Z,18.40
2019-03-22T22:49:00.425Z,18.65
2019-03-22T22:51:28.833Z,18.67
2019-03-22T22:53:57.281Z,19.00
2019-03-22T22:56:25.731Z,19.12
2019-03-22T22:58:54.211Z,20.02
2019-03-22T23:01:22.749Z,20.05
2019-03-22T23:03:51.322Z,20.27
2019-03-22T23:06:19.743Z,18.15
2019-03-22T23:08:48.240Z,19.00
2019-03-22T23:11:16.729Z,20.57
2019-03-22T23:13:45.266Z,18.12
2019-03-22T23:16:14.021Z,19.60
2019-03-22T23:18:42.515Z,21.82
2019-03-22T23:21:11.089Z,20.30
2019-03-22T23:23:39.582Z,21.23
2019-03-22T23:26:08.001Z,20.08
2019-03-22T23:28:36.429Z,18.95
2019-03-22T23:31:04.869Z,20.85
2019-03-22T23:33:33.341Z,18.90
2019-03-22T23:36:01.862Z,19.92
2019-03-22T23:38:30.334Z,20.55
2019-03-22T23:40:58.741Z,20.68
2019-03-22T23:43:30.133Z,22.45
2019-03-22T23:45:58.614Z,21.40
2019-03-22T23:48:27.049Z,19.85
2019-03-22T23:50:55.448Z,20.85
2019-03-22T23:53:23.901Z,22.13
2019-03-22T23:55:52.346Z,23.22
2019-03-22T23:58:20.774Z,19.80
